Time;durP1;ratioP1;P1;durP2;ratioP2;P2;SDS_P1;SDS_P2;PMS_P1;PMS_P2;Temp;Humidity;BMP_temperature;BMP_pressure;BME280_temperature;BME280_humidity;BME280_pressure;Samples;Min_cycle;Max_cycle;Signal;HPM_P1;HPM_P2
2022/03/17 00:02:11;;;;;;;;;;;11.70;99.90;;;;;;8416479;28;19935;-67
2022/03/17 00:06:13;;;;;;;;;;;11.70;99.90;;;;;;8414638;28;19946;-67
2022/03/17 00:10:28;;;;;;;;;;;11.70;99.90;;;;;;8392761;28;20237;-67
2022/03/17 00:14:29;;;;;;;;;;;11.70;99.90;;;;;;8405571;28;19924;-67
2022/03/17 00:18:31;;;;;;;;;;;11.70;99.90;;;;;;8408257;28;20462;-67
2022/03/17 00:22:36;;;;;;;;;;;11.70;99.90;;;;;;8398632;28;19921;-67
2022/03/17 00:26:38;;;;;;;;;;;11.70;99.90;;;;;;8411922;28;20375;-67
2022/03/17 00:30:39;;;;;;;;;;;11.70;99.90;;;;;;8406437;28;20276;-67
2022/03/17 00:39:04;;;;;;;;;;;11.70;99.90;;;;;;8401930;28;19963;-67
2022/03/17 00:43:06;;;;;;;;;;;11.70;99.90;;;;;;8407507;28;19927;-67
2022/03/17 00:47:07;;;;;;;;;;;11.60;99.90;;;;;;8393474;28;20454;-67
2022/03/17 00:51:09;;;;;;;;;;;11.60;99.90;;;;;;8403640;28;20379;-67
2022/03/17 00:55:11;;;;;;;;;;;11.70;99.90;;;;;;8393617;28;20387;-67
2022/03/17 00:59:14;;;;;;;;;;;11.70;99.90;;;;;;8405482;28;19920;-67
2022/03/17 01:03:15;;;;;;;;;;;11.70;99.90;;;;;;8413339;28;19927;-67
2022/03/17 01:07:17;;;;;;;;;;;11.70;99.90;;;;;;8397102;28;19924;-67
2022/03/17 01:11:18;;;;;;;;;;;11.70;99.90;;;;;;8402285;28;20393;-67
2022/03/17 01:15:21;;;;;;;;;;;11.60;99.90;;;;;;8421511;28;19924;-67
2022/03/17 01:19:23;;;;;;;;;;;11.60;99.90;;;;;;8405788;28;19920;-67
2022/03/17 01:23:25;;;;;;;;;;;11.60;99.90;;;;;;8408888;28;20391;-67
2022/03/17 01:27:26;;;;;;;;;;;11.70;99.90;;;;;;8384959;28;19921;-67
2022/03/17 01:31:29;;;;;;;;;;;11.70;99.90;;;;;;8385625;28;19960;-67
2022/03/17 01:35:30;;;;;;;;;;;11.60;99.90;;;;;;8404461;28;19935;-67
2022/03/17 01:39:32;;;;;;;;;;;11.70;99.90;;;;;;8415346;28;19959;-67
2022/03/17 01:43:33;;;;;;;;;;;11.70;99.90;;;;;;8394112;28;19970;-67
2022/03/17 01:47:36;;;;;;;;;;;11.70;99.90;;;;;;8409524;28;19959;-67
2022/03/17 01:51:38;;;;;;;;;;;11.70;99.90;;;;;;8381291;28;19924;-67
2022/03/17 01:55:40;;;;;;;;;;;11.70;99.90;;;;;;8412263;28;19951;-67
2022/03/17 01:59:42;;;;;;;;;;;11.70;99.90;;;;;;8416460;28;19955;-67
2022/03/17 02:03:47;;;;;;;;;;;11.70;99.90;;;;;;8409237;28;19955;-67
2022/03/17 02:07:51;;;;;;;;;;;11.70;99.90;;;;;;8393182;28;19963;-67
2022/03/17 02:16:13;;;;;;;;;;;11.70;99.90;;;;;;8417029;28;19920;-67
2022/03/17 02:20:15;;;;;;;;;;;11.70;99.90;;;;;;8418666;28;20015;-67
2022/03/17 02:28:37;;;;;;;;;;;11.70;99.90;;;;;;8410283;28;19920;-67
2022/03/17 02:32:39;;;;;;;;;;;11.70;99.90;;;;;;8412126;28;20450;-67
2022/03/17 02:36:45;;;;;;;;;;;11.60;99.90;;;;;;8409650;28;19924;-67
2022/03/17 02:40:48;;;;;;;;;;;11.60;99.90;;;;;;8411221;28;19927;-67
2022/03/17 02:44:50;;;;;;;;;;;11.50;99.90;;;;;;8418136;28;19920;-67
2022/03/17 02:48:52;;;;;;;;;;;11.40;99.90;;;;;;8409174;28;20390;-67
2022/03/17 02:52:53;;;;;;;;;;;11.30;99.90;;;;;;8408446;28;20408;-67
2022/03/17 02:56:55;;;;;;;;;;;11.20;99.90;;;;;;8409710;28;19939;-67
2022/03/17 03:00:57;;;;;;;;;;;11.10;99.90;;;;;;8417244;28;19920;-67
2022/03/17 03:04:58;;;;;;;;;;;11.00;99.90;;;;;;8390918;28;19929;-67
2022/03/17 03:09:00;;;;;;;;;;;10.90;99.90;;;;;;8405280;28;20390;-67
2022/03/17 03:13:02;;;;;;;;;;;10.80;99.90;;;;;;8397735;28;19924;-67
2022/03/17 03:17:03;;;;;;;;;;;10.60;99.90;;;;;;8422157;28;19963;-67
2022/03/17 03:21:07;;;;;;;;;;;10.50;99.90;;;;;;8409200;28;19928;-67
2022/03/17 03:25:09;;;;;;;;;;;10.20;99.90;;;;;;8421325;28;20307;-67
2022/03/17 03:29:33;;;;;;;;;;;10.10;99.90;;;;;;8427571;28;19920;-67
2022/03/17 03:33:34;;;;;;;;;;;9.90;99.90;;;;;;8400084;28;20015;-67
2022/03/17 03:37:35;;;;;;;;;;;9.70;99.90;;;;;;8406751;28;20010;-67
2022/03/17 03:41:37;;;;;;;;;;;9.70;99.90;;;;;;8414867;28;19960;-67
2022/03/17 03:45:38;;;;;;;;;;;9.60;99.90;;;;;;8407000;28;20384;-67
2022/03/17 03:49:41;;;;;;;;;;;9.50;99.90;;;;;;8416489;28;19927;-67
2022/03/17 03:58:03;;;;;;;;;;;9.40;99.90;;;;;;8421757;28;19978;-67
2022/03/17 04:02:06;;;;;;;;;;;9.30;99.90;;;;;;8416453;28;19920;-67
2022/03/17 04:06:07;;;;;;;;;;;9.30;99.90;;;;;;8416995;28;20439;-67
2022/03/17 04:10:09;;;;;;;;;;;9.20;99.90;;;;;;8393610;28;19964;-67
2022/03/17 04:14:11;;;;;;;;;;;9.20;99.90;;;;;;8407686;28;19964;-67
2022/03/17 04:18:13;;;;;;;;;;;9.20;99.90;;;;;;8409446;28;19987;-67
2022/03/17 04:22:14;;;;;;;;;;;9.10;99.90;;;;;;8432386;28;19935;-67
2022/03/17 04:26:16;;;;;;;;;;;9.10;99.90;;;;;;8385472;28;20335;-67
2022/03/17 04:30:17;;;;;;;;;;;9.10;99.90;;;;;;8386711;28;19959;-67
2022/03/17 04:34:20;;;;;;;;;;;9.10;99.90;;;;;;8415906;28;19924;-67
2022/03/17 04:38:22;;;;;;;;;;;9.10;99.90;;;;;;8415751;28;19958;-67
2022/03/17 04:42:24;;;;;;;;;;;9.10;99.90;;;;;;8413932;28;19920;-67
2022/03/17 04:46:25;;;;;;;;;;;9.00;99.90;;;;;;8409356;28;19959;-67
2022/03/17 04:50:27;;;;;;;;;;;9.00;99.90;;;;;;8390523;28;19977;-67
2022/03/17 04:54:29;;;;;;;;;;;8.90;99.90;;;;;;8412014;28;19965;-67
2022/03/17 04:58:32;;;;;;;;;;;8.90;99.90;;;;;;8384817;28;19967;-67
2022/03/17 05:02:34;;;;;;;;;;;8.80;99.90;;;;;;8419292;28;20011;-67
2022/03/17 05:06:35;;;;;;;;;;;8.80;99.90;;;;;;8409428;28;19967;-67
2022/03/17 05:10:37;;;;;;;;;;;8.80;99.90;;;;;;8399683;28;20010;-67
2022/03/17 05:14:39;;;;;;;;;;;8.80;99.90;;;;;;8415499;28;20019;-67
2022/03/17 05:18:41;;;;;;;;;;;8.70;99.90;;;;;;8398691;28;20398;-67
2022/03/17 05:22:43;;;;;;;;;;;8.70;99.90;;;;;;8411415;28;19927;-67
2022/03/17 05:26:45;;;;;;;;;;;8.70;99.90;;;;;;8390383;28;19999;-67
2022/03/17 05:30:47;;;;;;;;;;;8.70;99.90;;;;;;8405846;28;19927;-67
2022/03/17 05:34:48;;;;;;;;;;;8.70;99.90;;;;;;8418721;28;19920;-67
2022/03/17 05:38:50;;;;;;;;;;;8.60;99.90;;;;;;8395668;28;19920;-67
2022/03/17 05:42:54;;;;;;;;;;;8.50;99.90;;;;;;8404247;28;19927;-67
2022/03/17 05:46:55;;;;;;;;;;;8.50;99.90;;;;;;8407842;28;20015;-67
2022/03/17 05:50:59;;;;;;;;;;;8.50;99.90;;;;;;8398881;28;21257;-67
2022/03/17 05:55:00;;;;;;;;;;;8.40;99.90;;;;;;8417540;28;19932;-67
2022/03/17 05:59:02;;;;;;;;;;;8.40;99.90;;;;;;8415431;28;19928;-67
2022/03/17 06:03:04;;;;;;;;;;;8.40;99.90;;;;;;8407121;28;19935;-67
2022/03/17 06:07:06;;;;;;;;;;;8.30;99.90;;;;;;8400791;28;19926;-67
2022/03/17 06:11:07;;;;;;;;;;;8.30;99.90;;;;;;8423312;28;20000;-67
2022/03/17 06:15:09;;;;;;;;;;;8.20;99.90;;;;;;8425894;28;20438;-67
2022/03/17 06:19:11;;;;;;;;;;;8.20;99.90;;;;;;8419533;28;20016;-67
2022/03/17 06:23:12;;;;;;;;;;;8.10;99.90;;;;;;8424057;28;20415;-67
2022/03/17 06:27:14;;;;;;;;;;;8.10;99.90;;;;;;8421568;28;20007;-67
2022/03/17 06:31:16;;;;;;;;;;;8.20;99.90;;;;;;8400281;28;20391;-67
2022/03/17 06:35:19;;;;;;;;;;;8.20;99.90;;;;;;8403857;28;20383;-67
2022/03/17 06:39:21;;;;;;;;;;;8.20;99.90;;;;;;8414160;28;19968;-67
2022/03/17 06:43:22;;;;;;;;;;;8.20;99.90;;;;;;8425508;28;19924;-67
2022/03/17 06:47:24;;;;;;;;;;;8.20;99.90;;;;;;8416406;28;19982;-67
2022/03/17 06:51:26;;;;;;;;;;;8.30;99.90;;;;;;8406615;28;19972;-67
2022/03/17 06:55:31;;;;;;;;;;;8.30;99.90;;;;;;8414271;28;19989;-67
2022/03/17 06:59:33;;;;;;;;;;;8.30;99.90;;;;;;8429237;28;19994;-67
2022/03/17 07:03:34;;;;;;;;;;;8.30;99.90;;;;;;8404453;28;19924;-67
2022/03/17 07:07:36;;;;;;;;;;;8.30;99.90;;;;;;8411407;28;19931;-67
2022/03/17 07:11:38;;;;;;;;;;;8.30;99.90;;;;;;8423066;28;19972;-67
2022/03/17 07:15:39;;;;;;;;;;;8.40;99.90;;;;;;8418649;28;19963;-67
2022/03/17 07:19:41;;;;;;;;;;;8.40;99.90;;;;;;8421035;28;19961;-67
2022/03/17 07:23:43;;;;;;;;;;;8.50;99.90;;;;;;8412233;28;19966;-67
2022/03/17 07:27:46;;;;;;;;;;;8.50;99.90;;;;;;8414274;28;19968;-67
2022/03/17 07:31:47;;;;;;;;;;;8.40;99.90;;;;;;8400445;28;20303;-67
2022/03/17 07:35:49;;;;;;;;;;;8.40;99.90;;;;;;8424478;28;20027;-67
2022/03/17 07:39:50;;;;;;;;;;;8.40;99.90;;;;;;8419340;28;19924;-67
2022/03/17 07:43:52;;;;;;;;;;;8.40;99.90;;;;;;8415969;28;20267;-67
2022/03/17 07:47:54;;;;;;;;;;;8.40;99.90;;;;;;8388719;28;19925;-67
2022/03/17 07:51:55;;;;;;;;;;;8.50;99.90;;;;;;8409099;28;20372;-67
2022/03/17 07:55:57;;;;;;;;;;;8.60;99.90;;;;;;8406703;28;19928;-67
2022/03/17 07:59:59;;;;;;;;;;;8.60;99.90;;;;;;8419157;28;19928;-67
2022/03/17 08:04:00;;;;;;;;;;;8.70;99.90;;;;;;8424590;28;19960;-67
2022/03/17 08:08:03;;;;;;;;;;;8.70;99.90;;;;;;8426642;28;19982;-67
2022/03/17 08:12:05;;;;;;;;;;;8.90;99.90;;;;;;8409277;28;19924;-67
2022/03/17 08:16:10;;;;;;;;;;;8.90;99.90;;;;;;8423870;28;19932;-66
2022/03/17 08:20:12;;;;;;;;;;;9.00;99.90;;;;;;8427910;28;19924;-67
2022/03/17 08:24:14;;;;;;;;;;;9.10;99.90;;;;;;8426766;28;20037;-67
2022/03/17 08:28:17;;;;;;;;;;;9.10;99.90;;;;;;8428778;28;19932;-67
2022/03/17 08:32:19;;;;;;;;;;;9.00;99.90;;;;;;8404372;28;20011;-67
2022/03/17 08:36:20;;;;;;;;;;;8.90;99.90;;;;;;8423971;28;20397;-67
2022/03/17 08:40:22;;;;;;;;;;;8.90;99.90;;;;;;8424126;28;19968;-67
2022/03/17 08:44:24;;;;;;;;;;;9.00;99.90;;;;;;8407140;28;20384;-67
2022/03/17 08:52:45;;;;;;;;;;;8.90;99.90;;;;;;8415080;28;20311;-67
2022/03/17 08:56:47;;;;;;;;;;;8.90;99.90;;;;;;8417351;28;20352;-67
2022/03/17 09:00:49;;;;;;;;;;;8.90;99.90;;;;;;8436061;28;19943;-67
2022/03/17 09:04:50;;;;;;;;;;;8.80;99.90;;;;;;8427956;28;19978;-67
2022/03/17 09:08:52;;;;;;;;;;;8.80;99.90;;;;;;8420853;28;20671;-67
2022/03/17 09:12:57;;;;;;;;;;;8.80;99.90;;;;;;8430023;28;19924;-67
2022/03/17 09:16:59;;;;;;;;;;;8.90;99.90;;;;;;8426765;28;19972;-67
2022/03/17 09:21:01;;;;;;;;;;;9.00;99.90;;;;;;8436242;28;20355;-67
2022/03/17 09:25:04;;;;;;;;;;;9.00;99.90;;;;;;8423733;28;19974;-67
2022/03/17 09:29:06;;;;;;;;;;;9.10;99.90;;;;;;8422273;28;19963;-67
2022/03/17 09:33:09;;;;;;;;;;;9.10;99.90;;;;;;8413156;28;20418;-67
2022/03/17 09:37:10;;;;;;;;;;;9.20;99.90;;;;;;8415933;28;19927;-67
2022/03/17 09:41:25;;;;;;;;;;;9.30;99.90;;;;;;8412209;28;20337;-66
2022/03/17 09:45:27;;;;;;;;;;;9.30;99.90;;;;;;8427259;28;19978;-67
2022/03/17 09:49:28;;;;;;;;;;;9.40;99.90;;;;;;8424347;28;19931;-67
2022/03/17 09:53:31;;;;;;;;;;;9.50;99.90;;;;;;8416406;28;19967;-67
2022/03/17 09:57:33;;;;;;;;;;;9.60;99.90;;;;;;8414277;28;19968;-67
2022/03/17 10:01:35;;;;;;;;;;;9.80;99.90;;;;;;8419962;28;20413;-67
2022/03/17 10:05:37;;;;;;;;;;;10.00;99.90;;;;;;8393230;28;19924;-67
2022/03/17 10:09:39;;;;;;;;;;;10.10;99.90;;;;;;8409376;28;19974;-67
2022/03/17 10:13:45;;;;;;;;;;;10.30;99.90;;;;;;8396058;28;19928;-67
2022/03/17 10:17:47;;;;;;;;;;;10.40;99.90;;;;;;8430312;28;20356;-67
2022/03/17 10:21:49;;;;;;;;;;;10.50;99.90;;;;;;8430312;28;20011;-67
2022/03/17 10:25:54;;;;;;;;;;;10.90;99.90;;;;;;8427592;28;19923;-67
2022/03/17 10:30:03;;;;;;;;;;;11.30;99.90;;;;;;8409200;28;19966;-67
2022/03/17 10:34:04;;;;;;;;;;;11.80;99.90;;;;;;8431757;28;19919;-67
2022/03/17 10:38:09;;;;;;;;;;;12.10;99.90;;;;;;8418196;28;19920;-68
2022/03/17 10:42:12;;;;;;;;;;;12.20;99.90;;;;;;8419432;28;19966;-67
2022/03/17 10:46:16;;;;;;;;;;;12.20;99.90;;;;;;8415445;28;19974;-67
2022/03/17 10:50:22;;;;;;;;;;;12.30;99.90;;;;;;8419615;28;19949;-67
2022/03/17 10:54:24;;;;;;;;;;;12.20;99.90;;;;;;8430879;28;20006;-67
2022/03/17 10:58:26;;;;;;;;;;;12.20;99.90;;;;;;8425275;28;19978;-67
2022/03/17 11:02:27;;;;;;;;;;;12.70;99.90;;;;;;8410263;28;19967;-67
2022/03/17 11:06:29;;;;;;;;;;;13.00;99.90;;;;;;8403873;28;19943;-67
2022/03/17 11:10:31;;;;;;;;;;;13.10;99.90;;;;;;8397742;28;20422;-67
2022/03/17 11:14:33;;;;;;;;;;;13.60;99.90;;;;;;8412632;28;19975;-67
2022/03/17 11:18:37;;;;;;;6.30;1.50;;;14.20;99.90;;;;;;8407257;28;20374;-67
2022/03/17 11:22:39;;;;;;;;;;;14.50;99.90;;;;;;8393574;28;20049;-67
2022/03/17 11:26:44;;;;;;;;;;;14.80;99.90;;;;;;8405688;28;20795;-67
2022/03/17 11:30:46;;;;;;;;;;;15.00;99.90;;;;;;8380127;28;19928;-67
2022/03/17 11:34:48;;;;;;;;;;;14.80;99.90;;;;;;8418356;28;20371;-67
2022/03/17 11:39:00;;;;;;;;;;;14.80;99.90;;;;;;8410686;28;19932;-67
2022/03/17 11:43:07;;;;;;;;;;;15.10;99.90;;;;;;8418312;28;19978;-67
2022/03/17 11:47:10;;;;;;;;;;;15.00;99.90;;;;;;8416923;28;20381;-67
2022/03/17 11:51:13;;;;;;;;;;;15.00;99.90;;;;;;8415501;28;19970;-67
2022/03/17 11:55:30;;;;;;;;;;;15.30;99.90;;;;;;8412309;28;19955;-67
2022/03/17 11:59:52;;;;;;;4.87;1.70;;;15.70;99.90;;;;;;8414834;28;20299;-67
2022/03/17 12:03:57;;;;;;;;;;;16.40;99.90;;;;;;8415733;28;20051;-67
2022/03/17 12:08:00;;;;;;;;;;;16.30;99.90;;;;;;8401488;28;19927;-67
2022/03/17 12:12:03;;;;;;;;;;;15.80;99.90;;;;;;8421759;28;19936;-67
2022/03/17 12:16:05;;;;;;;;;;;15.20;99.90;;;;;;8414001;28;19932;-67
2022/03/17 12:20:11;;;;;;;;;;;14.90;99.90;;;;;;8421762;28;19931;-67
2022/03/17 12:24:32;;;;;;;;;;;15.30;99.90;;;;;;8397807;28;20315;-67
2022/03/17 12:28:41;;;;;;;;;;;15.80;99.90;;;;;;8420953;28;19947;-67
2022/03/17 12:32:50;;;;;;;;;;;16.00;99.90;;;;;;8422402;28;19925;-67
2022/03/17 12:36:51;;;;;;;;;;;16.10;99.90;;;;;;8425059;28;20379;-67
2022/03/17 12:40:58;;;;;;;;;;;16.30;99.90;;;;;;8423414;28;19928;-67
2022/03/17 12:45:01;;;;;;;;;;;16.50;99.90;;;;;;8419828;28;19963;-67
2022/03/17 12:49:06;;;;;;;;;;;16.90;99.90;;;;;;8425049;28;19978;-67
2022/03/17 12:53:08;;;;;;;;;;;17.30;99.90;;;;;;8399354;28;19943;-67
2022/03/17 12:57:10;;;;;;;;;;;17.10;99.90;;;;;;8417119;28;20357;-67
2022/03/17 13:01:14;;;;;;;5.40;1.70;;;16.60;99.90;;;;;;8415097;28;19930;-67
2022/03/17 13:09:39;;;;;;;;;;;15.60;99.90;;;;;;8423760;28;20052;-67
2022/03/17 13:18:03;;;;;;;6.05;1.25;;;14.80;99.90;;;;;;8425613;28;19924;-67
2022/03/17 13:22:06;;;;;;;4.43;1.70;;;14.70;99.90;;;;;;8421699;28;20489;-67
2022/03/17 13:26:08;;;;;;;5.45;1.40;;;14.80;99.90;;;;;;8397893;28;20052;-67
2022/03/17 13:30:17;;;;;;;5.55;1.65;;;14.90;99.90;;;;;;8424501;28;20143;-67
2022/03/17 13:34:45;;;;;;;4.90;1.40;;;14.90;99.90;;;;;;8403012;28;20498;-67
2022/03/17 13:38:47;;;;;;;4.70;1.40;;;15.10;99.90;;;;;;8418704;28;20131;-67
2022/03/17 13:43:05;;;;;;;;;;;15.30;99.90;;;;;;8416568;28;20083;-67
2022/03/17 13:47:10;;;;;;;;;;;15.40;99.90;;;;;;8418198;28;19927;-67
2022/03/17 13:51:12;;;;;;;7.03;1.15;;;15.50;99.90;;;;;;8396614;28;19924;-67
2022/03/17 13:55:16;;;;;;;3.17;1.30;;;15.60;99.90;;;;;;8417416;28;20086;-67
2022/03/17 13:59:22;;;;;;;4.97;1.48;;;15.50;99.90;;;;;;8425190;28;20044;-67
2022/03/17 14:03:31;;;;;;;4.30;1.30;;;15.40;99.90;;;;;;8419386;28;20128;-67
2022/03/17 14:07:33;;;;;;;3.95;1.20;;;15.40;99.90;;;;;;8420182;28;20101;-67
2022/03/17 14:11:36;;;;;;;;;;;15.40;99.90;;;;;;8397874;28;20175;-67
2022/03/17 14:15:37;;;;;;;;;;;15.40;99.10;;;;;;8397491;28;19966;-67
2022/03/17 14:19:39;;;;;;;6.40;1.30;;;15.40;98.50;;;;;;8410714;28;19963;-67
2022/03/17 14:28:02;;;;;;;;;;;16.90;99.90;;;;;;8424140;28;19939;-67
2022/03/17 14:32:05;;;;;;;;;;;18.20;99.90;;;;;;8420004;28;19963;-67
2022/03/17 14:36:08;;;;;;;;;;;19.30;99.90;;;;;;8386411;28;19920;-67
2022/03/17 14:40:10;;;;;;;;;;;20.10;99.90;;;;;;8388021;28;20368;-67
2022/03/17 14:44:11;;;;;;;;;;;20.70;99.90;;;;;;8392870;28;20039;-67
2022/03/17 14:48:13;;;;;;;;;;;21.10;99.90;;;;;;8373309;28;19975;-67
2022/03/17 14:52:15;;;;;;;;;;;21.60;99.90;;;;;;8386308;28;19924;-67
2022/03/17 14:56:18;;;;;;;;;;;22.30;99.90;;;;;;8386345;28;20019;-67
2022/03/17 15:00:20;;;;;;;;;;;22.10;99.90;;;;;;8388463;28;19974;-67
2022/03/17 15:04:22;;;;;;;3.53;1.10;;;22.30;99.90;;;;;;8403511;28;19924;-67
2022/03/17 15:08:24;;;;;;;3.90;1.10;;;22.70;99.90;;;;;;8389532;28;20135;-68
2022/03/17 15:12:26;;;;;;;4.25;1.20;;;22.80;99.90;;;;;;8375097;28;20404;-67
2022/03/17 15:16:27;;;;;;;4.20;1.10;;;22.70;99.90;;;;;;8396783;28;20759;-68
2022/03/17 15:20:29;;;;;;;3.72;1.35;;;22.70;99.90;;;;;;8393494;28;19924;-68
2022/03/17 15:24:31;;;;;;;3.85;1.20;;;22.90;99.90;;;;;;8378899;28;20411;-68
2022/03/17 15:32:56;;;;;;;;;;;22.90;99.90;;;;;;8392499;28;20036;-67
2022/03/17 15:36:58;;;;;;;;;;;22.60;99.90;;;;;;8414678;28;19928;-67
2022/03/17 15:41:00;;;;;;;;;;;22.50;99.20;;;;;;8407479;28;19920;-67
2022/03/17 15:45:02;;;;;;;;;;;22.50;97.70;;;;;;8394407;28;20387;-67
2022/03/17 15:49:04;;;;;;;;;;;22.30;96.90;;;;;;8384632;28;19930;-67
2022/03/17 15:53:05;;;;;;;;;;;22.00;96.40;;;;;;8401804;28;19963;-67
2022/03/17 15:57:07;;;;;;;;;;;21.60;95.50;;;;;;8399304;28;19920;-67
2022/03/17 16:01:08;;;;;;;;;;;21.30;93.80;;;;;;8403552;28;20031;-67
2022/03/17 16:05:12;;;;;;;;;;;21.20;93.90;;;;;;8412847;28;20401;-67
2022/03/17 16:09:14;;;;;;;;;;;21.30;93.70;;;;;;8398155;28;20011;-67
2022/03/17 16:17:36;;;;;;;;;;;21.20;91.70;;;;;;8397257;28;20023;-67
2022/03/17 16:21:37;;;;;;;;;;;21.30;90.80;;;;;;8391737;28;19971;-67
2022/03/17 16:25:39;;;;;;;;;;;21.30;90.40;;;;;;8393691;28;19968;-67
2022/03/17 16:29:41;;;;;;;;;;;21.50;90.70;;;;;;8391936;28;19963;-67
2022/03/17 16:33:42;;;;;;;;;;;21.60;90.60;;;;;;8389756;28;20016;-67
2022/03/17 16:37:44;;;;;;;;;;;21.30;89.80;;;;;;8386560;28;21052;-67
2022/03/17 16:41:46;;;;;;;;;;;21.30;88.60;;;;;;8387845;28;20281;-67
2022/03/17 16:45:48;;;;;;;;;;;21.50;88.80;;;;;;8393063;28;19970;-67
2022/03/17 16:49:49;;;;;;;;;;;21.80;88.30;;;;;;8383905;28;19964;-67
2022/03/17 16:53:51;;;;;;;;;;;21.70;85.70;;;;;;8394572;28;19956;-67
2022/03/17 16:57:53;;;;;;;;;;;21.70;84.50;;;;;;8395489;28;20122;-67
2022/03/17 17:01:55;;;;;;;;;;;21.40;82.70;;;;;;8374613;28;19924;-67
2022/03/17 17:05:57;;;;;;;;;;;20.80;81.90;;;;;;8392787;28;19928;-67
2022/03/17 17:09:58;;;;;;;;;;;20.20;81.40;;;;;;8407620;28;19940;-67
2022/03/17 17:14:00;;;;;;;;;;;19.80;80.80;;;;;;8404593;28;20015;-67
2022/03/17 17:18:02;;;;;;;;;;;19.50;79.30;;;;;;8390831;28;19978;-67
2022/03/17 17:22:07;;;;;;;;;;;19.00;78.00;;;;;;8400691;28;19928;-67
2022/03/17 17:30:41;;;;;;;;;;;17.90;77.60;;;;;;8391929;28;19986;-67
2022/03/17 17:34:43;;;;;;;;;;;17.30;76.50;;;;;;8392096;28;20015;-67
2022/03/17 17:38:44;;;;;;;;;;;16.60;75.80;;;;;;8390774;28;19967;-67
2022/03/17 17:42:47;;;;;;;3.05;1.33;;;16.00;75.10;;;;;;8389399;28;20430;-67
2022/03/17 17:46:48;;;;;;;3.95;1.13;;;15.50;75.00;;;;;;8379342;28;20127;-67
2022/03/17 17:50:51;;;;;;;4.05;1.33;;;15.20;75.20;;;;;;8389832;28;20056;-67
2022/03/17 17:54:52;;;;;;;;;;;15.00;75.30;;;;;;8389099;28;20406;-67
2022/03/17 17:58:54;;;;;;;;;;;14.80;75.20;;;;;;8387514;28;20403;-67
2022/03/17 18:02:56;;;;;;;;;;;14.60;75.00;;;;;;8392981;28;19928;-67
2022/03/17 18:06:58;;;;;;;;;;;14.30;74.80;;;;;;8389392;28;19932;-67
2022/03/17 18:11:00;;;;;;;;;;;13.90;74.80;;;;;;8390181;28;19921;-67
2022/03/17 18:15:05;;;;;;;;;;;13.50;75.20;;;;;;8394291;28;20036;-67
2022/03/17 18:19:06;;;;;;;;;;;13.20;75.60;;;;;;8382242;28;19924;-67
2022/03/17 18:23:09;;;;;;;;;;;12.90;76.10;;;;;;8394610;28;19924;-67
2022/03/17 18:27:12;;;;;;;;;;;12.70;76.50;;;;;;8395937;28;20319;-67
2022/03/17 18:31:15;;;;;;;;;;;12.50;76.50;;;;;;8375253;28;19967;-67
2022/03/17 18:35:16;;;;;;;;;;;12.20;76.40;;;;;;8384993;28;20333;-67
2022/03/17 18:39:18;;;;;;;;;;;12.10;76.70;;;;;;8390129;28;19947;-67
2022/03/17 18:43:19;;;;;;;;;;;11.90;76.60;;;;;;8390386;28;20402;-67
2022/03/17 18:47:21;;;;;;;;;;;11.70;76.60;;;;;;8391730;28;19924;-67
2022/03/17 18:51:23;;;;;;;4.50;1.45;;;11.50;76.60;;;;;;8390722;28;19982;-67
2022/03/17 18:55:25;;;;;;;4.15;1.30;;;11.30;76.60;;;;;;8387943;28;20075;-67
2022/03/17 18:59:27;;;;;;;;;;;11.20;76.80;;;;;;8387522;28;20052;-67
2022/03/17 19:03:28;;;;;;;;;;;11.10;76.80;;;;;;8398676;28;19926;-67
2022/03/17 19:07:30;;;;;;;;;;;10.90;76.80;;;;;;8388505;28;20668;-67
2022/03/17 19:11:32;;;;;;;;;;;10.90;76.80;;;;;;8408050;28;19970;-67
2022/03/17 19:15:34;;;;;;;;;;;10.80;76.60;;;;;;8408311;28;20030;-67
2022/03/17 19:19:42;;;;;;;;;;;10.60;76.40;;;;;;8391084;28;19931;-67
2022/03/17 19:23:44;;;;;;;;;;;10.40;76.40;;;;;;8389940;28;19951;-67
2022/03/17 19:27:46;;;;;;;;;;;10.20;76.40;;;;;;8392877;28;20010;-67
2022/03/17 19:31:48;;;;;;;;;;;10.10;76.50;;;;;;8390394;28;20005;-67
2022/03/17 19:35:49;;;;;;;;;;;9.90;77.50;;;;;;8385523;28;20007;-67
2022/03/17 19:39:51;;;;;;;;;;;9.70;77.70;;;;;;8385087;28;19928;-67
2022/03/17 19:43:54;;;;;;;;;;;9.60;78.00;;;;;;8390339;28;19924;-67
2022/03/17 19:47:56;;;;;;;;;;;9.50;77.80;;;;;;8404009;28;19978;-67
2022/03/17 19:51:57;;;;;;;;;;;9.30;77.80;;;;;;8400519;28;19928;-67
2022/03/17 19:56:10;;;;;;;;;;;9.20;77.80;;;;;;8391228;28;19955;-67
2022/03/17 20:00:11;;;;;;;;;;;9.00;77.80;;;;;;8404196;28;20662;-67
2022/03/17 20:04:13;;;;;;;;;;;8.90;78.00;;;;;;8393433;28;20043;-67
2022/03/17 20:08:15;;;;;;;;;;;8.80;78.30;;;;;;8390574;28;20709;-67
2022/03/17 20:16:37;;;;;;;;;;;8.60;78.20;;;;;;8392568;28;20060;-67
2022/03/17 20:20:38;;;;;;;;;;;8.50;78.20;;;;;;8396436;28;19958;-67
2022/03/17 20:24:40;;;;;;;;;;;8.40;78.10;;;;;;8395332;28;20014;-67
2022/03/17 20:28:42;;;;;;;;;;;8.30;78.10;;;;;;8380853;28;20008;-67
2022/03/17 20:32:47;;;;;;;;;;;8.20;78.20;;;;;;8405215;28;19920;-67
2022/03/17 20:36:48;;;;;;;;;;;8.00;78.20;;;;;;8405810;28;19951;-67
2022/03/17 20:40:50;;;;;;;;;;;7.80;78.30;;;;;;8381153;28;19982;-67
2022/03/17 20:44:53;;;;;;;;;;;7.70;78.50;;;;;;8380177;28;20062;-67
2022/03/17 20:48:54;;;;;;;;;;;7.60;78.60;;;;;;8383437;28;20360;-67
2022/03/17 20:52:56;;;;;;;;;;;7.40;78.70;;;;;;8390930;28;19994;-67
2022/03/17 20:57:04;;;;;;;;;;;7.30;78.90;;;;;;8394757;28;20022;-67
2022/03/17 21:01:06;;;;;;;;;;;7.20;78.90;;;;;;8389056;28;20023;-67
2022/03/17 21:05:09;;;;;;;;;;;7.20;78.90;;;;;;8393942;28;19935;-67
2022/03/17 21:09:12;;;;;;;;;;;7.10;78.90;;;;;;8398580;28;19982;-67
2022/03/17 21:13:15;;;;;;;;;;;7.00;78.80;;;;;;8386953;28;19933;-67
2022/03/17 21:17:17;;;;;;;;;;;6.90;78.90;;;;;;8371156;28;20391;-67
2022/03/17 21:21:19;;;;;;;;;;;6.80;79.10;;;;;;8392453;28;19935;-67
2022/03/17 21:25:21;;;;;;;;;;;6.80;79.10;;;;;;8389553;28;19924;-67
2022/03/17 21:29:22;;;;;;;;;;;6.60;79.10;;;;;;8371526;28;19931;-67
2022/03/17 21:33:24;;;;;;;;;;;6.50;79.20;;;;;;8402755;28;20064;-67
2022/03/17 21:37:25;;;;;;;;;;;6.30;79.30;;;;;;8394359;28;19959;-67
2022/03/17 21:41:27;;;;;;;;;;;6.20;79.60;;;;;;8382148;28;19980;-67
2022/03/17 21:45:29;;;;;;;;;;;6.10;79.60;;;;;;8381756;28;19971;-67
2022/03/17 21:49:34;;;;;;;;;;;6.10;79.70;;;;;;8391614;28;20037;-67
2022/03/17 21:53:37;;;;;;;;;;;5.90;80.50;;;;;;8386568;28;19921;-67
2022/03/17 21:57:38;;;;;;;;;;;5.90;80.20;;;;;;8387448;28;19966;-67
2022/03/17 22:01:41;;;;;;;;;;;5.90;80.10;;;;;;8400061;28;20011;-67
2022/03/17 22:05:43;;;;;;;;;;;5.90;79.90;;;;;;8402107;28;19998;-67
2022/03/17 22:09:48;;;;;;;;;;;5.80;79.80;;;;;;8414643;28;19920;-67
2022/03/17 22:13:49;;;;;;;;;;;5.70;79.70;;;;;;8399778;28;19931;-67
2022/03/17 22:17:51;;;;;;;;;;;5.60;79.80;;;;;;8410323;28;19920;-67
2022/03/17 22:21:52;;;;;;;;;;;5.60;79.90;;;;;;8414359;28;19966;-67
2022/03/17 22:25:57;;;;;;;;;;;5.50;79.90;;;;;;8405257;28;20360;-67
2022/03/17 22:29:59;;;;;;;;;;;5.40;79.70;;;;;;8413719;28;19963;-67
2022/03/17 22:34:00;;;;;;;;;;;5.40;79.80;;;;;;8389757;28;19920;-67
2022/03/17 22:38:02;;;;;;;;;;;5.40;79.90;;;;;;8396928;28;19963;-67
2022/03/17 22:42:04;;;;;;;;;;;5.30;79.70;;;;;;8381509;28;19963;-67
2022/03/17 22:46:05;;;;;;;;;;;5.30;79.80;;;;;;8396792;28;19964;-67
2022/03/17 22:50:07;;;;;;;;;;;5.20;79.80;;;;;;8393134;28;20399;-67
2022/03/17 22:54:10;;;;;;;;;;;5.10;79.80;;;;;;8389111;28;19919;-67
2022/03/17 22:58:12;;;;;;;;;;;5.10;79.90;;;;;;8404329;28;19968;-67
2022/03/17 23:02:17;;;;;;;;;;;5.00;80.00;;;;;;8408739;28;19984;-67
2022/03/17 23:06:21;;;;;;;;;;;4.80;80.10;;;;;;8412939;28;19924;-67
2022/03/17 23:10:23;;;;;;;;;;;4.80;80.20;;;;;;8400837;28;19925;-67
2022/03/17 23:14:25;;;;;;;;;;;4.70;80.10;;;;;;8406966;28;19967;-67
2022/03/17 23:18:26;;;;;;;;;;;4.60;80.00;;;;;;8402118;28;19927;-67
2022/03/17 23:22:28;;;;;;;;;;;4.50;80.00;;;;;;8409092;28;19986;-67
2022/03/17 23:26:29;;;;;;;;;;;4.50;80.30;;;;;;8390086;28;20015;-67
2022/03/17 23:30:31;;;;;;;;;;;4.40;80.20;;;;;;8406732;28;20026;-67
2022/03/17 23:34:33;;;;;;;;;;;4.30;80.20;;;;;;8406902;28;19955;-67
2022/03/17 23:38:37;;;;;;;;;;;4.30;80.90;;;;;;8407900;28;20011;-67
2022/03/17 23:42:40;;;;;;;;;;;4.20;80.30;;;;;;8407344;28;19967;-67
2022/03/17 23:46:42;;;;;;;;;;;4.10;80.20;;;;;;8406114;28;19973;-67
2022/03/17 23:50:45;;;;;;;;;;;4.10;80.30;;;;;;8411174;28;19919;-67
2022/03/17 23:54:48;;;;;;;;;;;4.00;80.40;;;;;;8412301;28;19964;-67
2022/03/17 23:58:50;;;;;;;;;;;3.90;80.70;;;;;;8409939;28;19927;-67
